Time;durP1;ratioP1;P1;durP2;ratioP2;P2;SDS_P1;SDS_P2;PMS_P1;PMS_P2;Temp;Humidity;BMP_temperature;BMP_pressure;BME280_temperature;BME280_humidity;BME280_pressure;Samples;Min_cycle;Max_cycle;Signal;HPM_P1;HPM_P2
2022/04/15 00:01:20;;;;;;;25.58;12.25;;;;;;;5.12;93.40;101173.94;5047231;28;20044;-66
2022/04/15 00:03:45;;;;;;;33.75;13.07;;;;;;;5.13;93.17;101175.66;5065012;28;20084;-66
2022/04/15 00:06:12;;;;;;;28.70;11.50;;;;;;;5.07;93.23;101166.09;5065027;28;20389;-68
2022/04/15 00:08:37;;;;;;;29.05;13.25;;;;;;;5.20;92.81;101177.59;5064904;28;20059;-67
2022/04/15 00:11:04;;;;;;;28.60;13.05;;;;;;;5.13;93.00;101174.81;5065117;28;20036;-69
2022/04/15 00:13:31;;;;;;;23.42;11.48;;;;;;;5.14;92.96;101177.44;5064818;28;20059;-67
2022/04/15 00:15:57;;;;;;;32.92;13.77;;;;;;;5.15;92.87;101176.59;5064715;28;20024;-66
2022/04/15 00:18:24;;;;;;;27.80;11.68;;;;;;;5.08;93.04;101175.53;5064798;28;20024;-69
2022/04/15 00:20:52;;;;;;;26.67;10.80;;;;;;;5.10;93.08;101179.88;5064781;28;20028;-68
2022/04/15 00:23:18;;;;;;;36.65;14.02;;;;;;;5.12;92.59;101184.22;5064732;28;20558;-67
2022/04/15 00:25:43;;;;;;;26.65;10.40;;;;;;;5.11;92.54;101181.63;5064532;28;20029;-68
2022/04/15 00:28:09;;;;;;;25.98;12.93;;;;;;;5.11;92.58;101189.34;5064436;28;20017;-67
2022/04/15 00:30:34;;;;;;;22.27;10.23;;;;;;;5.08;92.58;101191.00;5064269;28;20060;-67
2022/04/15 00:32:59;;;;;;;23.85;10.77;;;;;;;5.08;92.71;101190.09;5064509;28;20040;-67
2022/04/15 00:35:25;;;;;;;21.40;10.27;;;;;;;5.01;93.00;101185.63;5046316;28;20111;-66
2022/04/15 00:37:50;;;;;;;18.95;9.35;;;;;;;5.13;92.15;101200.56;5064446;28;20025;-67
2022/04/15 00:40:16;;;;;;;28.00;11.13;;;;;;;5.11;92.13;101199.63;5064202;28;20021;-66
2022/04/15 00:42:41;;;;;;;15.88;8.50;;;;;;;5.06;92.30;101209.81;5063764;28;20021;-66
2022/04/15 00:45:09;;;;;;;15.98;6.72;;;;;;;5.05;92.39;101203.78;5046321;28;20047;-70
2022/04/15 00:47:52;;;;;;;23.30;10.63;;;;;;;5.06;92.54;101202.94;5062863;28;20341;-67
2022/04/15 00:50:32;;;;;;;13.75;7.22;;;;;;;5.09;92.68;101217.63;5064467;28;20013;-67
2022/04/15 00:52:59;;;;;;;17.27;9.57;;;;;;;5.09;92.66;101215.03;5064404;28;20021;-67
2022/04/15 00:55:25;;;;;;;16.20;7.88;;;;;;;5.12;92.47;101219.38;5064257;28;20029;-68
2022/04/15 00:57:52;;;;;;;21.98;10.35;;;;;;;5.07;92.53;101217.56;5063746;28;20314;-68
2022/04/15 01:00:20;;;;;;;22.10;10.15;;;;;;;5.07;92.52;101219.25;5063985;28;20501;-67
2022/04/15 01:02:46;;;;;;;12.40;6.82;;;;;;;5.10;92.49;101221.06;5063666;28;20052;-69
2022/04/15 01:05:12;;;;;;;14.55;7.20;;;;;;;5.19;91.16;101224.75;5063285;28;20036;-68
2022/04/15 01:07:43;;;;;;;16.92;7.47;;;;;;;5.02;91.74;101218.25;5062881;28;20076;-68
2022/04/15 01:10:13;;;;;;;15.07;7.63;;;;;;;5.04;91.96;101221.75;5062824;28;20101;-68
2022/04/15 01:12:47;;;;;;;14.25;8.15;;;;;;;5.08;92.04;101221.00;5063123;28;20492;-69
2022/04/15 01:15:14;;;;;;;14.98;6.70;;;;;;;5.16;91.79;101228.97;5064007;28;20033;-68
2022/04/15 01:17:41;;;;;;;13.07;6.70;;;;;;;5.09;91.86;101225.34;5063681;28;20057;-69
2022/04/15 01:20:09;;;;;;;15.20;7.97;;;;;;;5.14;91.36;101230.59;5045984;28;20028;-68
2022/04/15 01:22:40;;;;;;;14.05;6.03;;;;;;;5.14;91.24;101234.06;5063537;28;20025;-70
2022/04/15 01:25:12;;;;;;;12.70;7.93;;;;;;;5.13;91.12;101237.44;5063482;28;20036;-69
2022/04/15 01:27:43;;;;;;;11.20;5.45;;;;;;;5.13;91.26;101245.16;5063390;28;20107;-70
2022/04/15 01:30:20;;;;;;;11.48;7.38;;;;;;;5.12;90.80;101235.72;5063611;28;20021;-69
2022/04/15 01:32:46;;;;;;;12.77;6.28;;;;;;;5.16;90.92;101244.41;5063282;28;20037;-69
2022/04/15 01:35:13;;;;;;;12.95;5.97;;;;;;;5.15;91.04;101256.38;5063350;28;20049;-67
2022/04/15 01:37:39;;;;;;;7.40;4.80;;;;;;;5.12;91.11;101264.03;5063137;28;20064;-69
2022/04/15 01:40:08;;;;;;;8.45;5.13;;;;;;;5.11;90.92;101264.88;5063256;28;20052;-70
2022/04/15 01:42:34;;;;;;;8.73;5.40;;;;;;;5.10;91.19;101263.09;5063007;28;20039;-70
2022/04/15 01:45:00;;;;;;;9.48;6.47;;;;;;;5.12;91.10;101281.16;5061682;28;20049;-68
2022/04/15 01:47:26;;;;;;;10.05;5.63;;;;;;;5.13;91.22;101276.06;5063229;28;20077;-70
2022/04/15 01:49:52;;;;;;;10.82;6.57;;;;;;;5.15;91.06;101270.94;5062899;28;20112;-69
2022/04/15 01:52:18;;;;;;;13.70;6.57;;;;;;;5.13;90.86;101270.91;5063142;28;20024;-68
2022/04/15 01:54:44;;;;;;;10.02;5.53;;;;;;;5.15;90.81;101282.13;5062821;28;20043;-68
2022/04/15 01:57:11;;;;;;;12.13;6.30;;;;;;;5.17;90.70;101279.59;5062777;28;20021;-69
2022/04/15 01:59:36;;;;;;;8.98;6.20;;;;;;;5.18;90.63;101284.78;5061545;28;20051;-69
2022/04/15 02:02:03;;;;;;;10.48;6.07;;;;;;;5.24;90.18;101288.38;5061556;28;20020;-68
2022/04/15 02:04:30;;;;;;;7.90;4.03;;;;;;;5.20;90.13;101290.88;5044909;28;20473;-67
2022/04/15 02:06:55;;;;;;;10.82;5.30;;;;;;;5.21;89.84;101309.75;5063040;28;20120;-70
2022/04/15 02:09:20;;;;;;;10.77;5.43;;;;;;;5.23;89.36;101300.38;5062352;28;20084;-69
2022/04/15 02:11:46;;;;;;;8.25;4.65;;;;;;;5.17;89.42;101315.63;5062520;28;20025;-68
2022/04/15 02:14:12;;;;;;;5.00;3.78;;;;;;;5.13;89.18;101309.53;5044738;28;20021;-68
2022/04/15 02:16:39;;;;;;;6.00;4.03;;;;;;;5.12;89.27;101320.66;5062721;28;20028;-69
2022/04/15 02:19:04;;;;;;;10.32;5.10;;;;;;;5.15;89.31;101320.75;5062721;28;20017;-68
2022/04/15 02:21:29;;;;;;;8.70;4.57;;;;;;;5.17;89.24;101320.78;5061187;28;20040;-68
2022/04/15 02:23:55;;;;;;;8.48;4.70;;;;;;;5.14;88.97;101315.56;5062579;28;20028;-70
2022/04/15 02:26:20;;;;;;;10.85;5.60;;;;;;;5.24;88.15;101329.56;5044635;28;20079;-69
2022/04/15 02:28:45;;;;;;;11.48;5.03;;;;;;;5.17;88.21;101329.41;5062422;28;20049;-70
2022/04/15 02:31:11;;;;;;;10.95;5.68;;;;;;;5.12;88.46;101328.38;5044568;28;20048;-69
2022/04/15 02:33:36;;;;;;;7.40;4.00;;;;;;;5.13;88.70;101345.56;5062499;28;20025;-70
2022/04/15 02:36:02;;;;;;;13.65;7.68;;;;;;;5.17;88.33;101343.97;5062530;28;20028;-70
2022/04/15 02:38:28;;;;;;;11.43;7.22;;;;;;;5.17;88.45;101337.13;5062388;28;20021;-69
2022/04/15 02:40:54;;;;;;;10.25;5.38;;;;;;;5.27;87.82;101345.09;5062336;28;20044;-70
2022/04/15 02:43:20;;;;;;;15.43;8.02;;;;;;;5.18;88.09;101346.56;5062417;28;20017;-70
2022/04/15 02:45:46;;;;;;;11.55;7.03;;;;;;;5.21;87.82;101343.22;5062488;28;20083;-72
2022/04/15 02:48:13;;;;;;;14.68;8.43;;;;;;;5.14;88.04;101354.16;5062398;28;20021;-67
2022/04/15 02:50:39;;;;;;;12.13;6.60;;;;;;;5.13;87.88;101349.84;5062316;28;20036;-68
2022/04/15 02:53:06;;;;;;;17.23;9.77;;;;;;;5.09;87.93;101359.19;5062091;28;20443;-69
2022/04/15 02:55:31;;;;;;;12.82;8.20;;;;;;;5.12;87.81;101361.84;5062237;28;20028;-67
2022/04/15 02:57:57;;;;;;;12.85;6.15;;;;;;;5.16;87.52;101373.13;5062357;28;20102;-69
2022/04/15 03:00:22;;;;;;;15.70;8.65;;;;;;;5.11;87.66;101364.38;5062322;28;20461;-69
2022/04/15 03:02:47;;;;;;;12.85;6.72;;;;;;;5.06;87.79;101374.53;5062254;28;20032;-68
2022/04/15 03:05:13;;;;;;;13.48;6.70;;;;;;;5.08;87.64;101378.00;5062216;28;20025;-70
2022/04/15 03:07:40;;;;;;;18.50;11.35;;;;;;;5.15;86.82;101379.06;5062510;28;20028;-69
2022/04/15 03:10:07;;;;;;;15.10;9.18;;;;;;;5.04;87.37;101382.22;5044334;28;20024;-68
2022/04/15 03:12:39;;;;;;;17.23;9.48;;;;;;;5.00;87.30;101380.34;5062264;28;20055;-69
2022/04/15 03:15:06;;;;;;;15.10;7.38;;;;;;;4.97;87.50;101387.97;5060584;28;20032;-69
2022/04/15 03:17:33;;;;;;;12.75;9.18;;;;;;;4.98;87.61;101382.03;5062182;28;20028;-69
2022/04/15 03:20:02;;;;;;;13.93;8.27;;;;;;;4.98;87.76;101394.00;5062031;28;20025;-69
2022/04/15 03:22:28;;;;;;;12.77;6.70;;;;;;;4.96;87.61;101393.97;5065049;28;20028;-70
2022/04/15 03:24:53;;;;;;;20.60;10.43;;;;;;;4.95;87.68;101400.81;5065675;28;20029;-68
2022/04/15 03:27:19;;;;;;;18.70;10.45;;;;;;;4.93;87.70;101397.34;5065041;28;20036;-68
2022/04/15 03:29:44;;;;;;;11.32;5.95;;;;;;;4.99;87.57;101404.34;5064537;28;20025;-69
2022/04/15 03:32:10;;;;;;;15.98;8.18;;;;;;;4.99;87.25;101411.19;5064766;28;20033;-69
2022/04/15 03:34:36;;;;;;;16.20;10.57;;;;;;;4.99;87.21;101401.78;5065349;28;20375;-69
2022/04/15 03:37:03;;;;;;;16.45;9.23;;;;;;;4.93;87.52;101399.91;5065393;28;20051;-68
2022/04/15 03:39:28;;;;;;;16.65;10.20;;;;;;;4.94;87.42;101405.91;5065216;28;20029;-69
2022/04/15 03:41:53;;;;;;;11.25;7.15;;;;;;;5.00;87.18;101406.09;5065191;28;20023;-69
2022/04/15 03:44:19;;;;;;;14.32;10.20;;;;;;;4.94;87.28;101414.50;5065288;28;20029;-69
2022/04/15 03:46:44;;;;;;;20.50;9.77;;;;;;;5.02;86.87;101413.84;5065241;28;20029;-69
2022/04/15 03:49:09;;;;;;;11.70;6.95;;;;;;;4.94;86.83;101419.66;5065211;28;20080;-69
2022/04/15 03:51:34;;;;;;;16.05;9.68;;;;;;;4.88;87.35;101418.59;5047190;28;20056;-68
2022/04/15 03:54:00;;;;;;;20.10;10.90;;;;;;;4.94;87.17;101431.63;5046992;28;20021;-69
2022/04/15 03:56:25;;;;;;;18.02;9.48;;;;;;;4.92;87.28;101433.31;5065136;28;20017;-69
2022/04/15 03:58:50;;;;;;;18.45;10.80;;;;;;;4.96;87.08;101437.72;5065031;28;20028;-68
2022/04/15 04:01:16;;;;;;;23.67;10.68;;;;;;;4.99;87.13;101447.22;5064863;28;20047;-68
2022/04/15 04:03:41;;;;;;;16.17;10.02;;;;;;;4.99;87.12;101442.06;5064768;28;20122;-69
2022/04/15 04:06:07;;;;;;;14.63;8.75;;;;;;;4.94;86.88;101441.94;5065074;28;20033;-70
2022/04/15 04:08:32;;;;;;;14.20;7.53;;;;;;;4.94;86.44;101440.25;5064924;28;20047;-69
2022/04/15 04:10:57;;;;;;;12.43;7.10;;;;;;;4.88;86.85;101452.03;5064788;28;20256;-68
2022/04/15 04:13:23;;;;;;;18.52;8.50;;;;;;;4.85;86.67;101447.69;5064662;28;20017;-69
2022/04/15 04:15:48;;;;;;;15.65;7.97;;;;;;;4.84;86.63;101457.09;5064472;28;20020;-67
2022/04/15 04:18:14;;;;;;;16.35;8.60;;;;;;;4.81;86.66;101462.13;5064545;28;20093;-70
2022/04/15 04:20:40;;;;;;;15.52;8.43;;;;;;;4.82;86.99;101463.00;5046430;28;20052;-68
2022/04/15 04:23:06;;;;;;;20.48;10.23;;;;;;;4.83;86.64;101469.91;5064392;28;20060;-69
2022/04/15 04:25:31;;;;;;;16.27;9.20;;;;;;;4.82;86.40;101481.03;5064393;28;20024;-69
2022/04/15 04:27:57;;;;;;;14.07;7.78;;;;;;;4.81;86.71;101477.56;5064439;28;20473;-69
2022/04/15 04:30:23;;;;;;;8.43;5.53;;;;;;;4.79;86.80;101484.34;5064177;28;20036;-69
2022/04/15 04:32:51;;;;;;;10.13;5.03;;;;;;;4.87;86.46;101492.34;5063719;28;20024;-68
2022/04/15 04:35:21;;;;;;;9.43;4.95;;;;;;;4.88;85.88;101499.25;5046399;28;20028;-69
2022/04/15 04:37:47;;;;;;;14.65;7.40;;;;;;;4.94;85.11;101509.72;5064206;28;20079;-69
2022/04/15 04:40:13;;;;;;;17.05;8.82;;;;;;;4.86;85.78;101503.44;5064168;28;20020;-69
2022/04/15 04:42:40;;;;;;;17.00;8.93;;;;;;;4.85;85.93;101509.44;5064240;28;20033;-68
2022/04/15 04:45:05;;;;;;;15.38;7.65;;;;;;;4.86;85.48;101508.59;5064169;28;20102;-69
2022/04/15 04:47:31;;;;;;;16.92;9.30;;;;;;;4.87;85.56;101518.09;5064091;28;20067;-70
2022/04/15 04:49:57;;;;;;;16.25;7.68;;;;;;;4.88;85.37;101521.50;5064041;28;20025;-68
2022/04/15 04:52:26;;;;;;;13.25;6.63;;;;;;;4.87;84.93;101522.34;5064036;28;20021;-69
2022/04/15 04:54:51;;;;;;;9.07;5.43;;;;;;;4.88;84.19;101524.97;5063766;28;20020;-67
2022/04/15 04:57:17;;;;;;;11.95;7.13;;;;;;;4.74;84.94;101521.94;5063945;28;20085;-68
2022/04/15 04:59:42;;;;;;;12.27;7.07;;;;;;;4.84;85.20;101543.69;5063781;28;20037;-69
2022/04/15 05:02:10;;;;;;;8.68;5.28;;;;;;;5.04;83.71;101551.22;5063953;28;20454;-69
2022/04/15 05:04:36;;;;;;;8.30;4.70;;;;;;;4.85;84.00;101545.47;5045733;28;20052;-70
2022/04/15 05:07:02;;;;;;;10.85;6.18;;;;;;;4.81;84.01;101554.75;5063847;28;20028;-69
2022/04/15 05:09:27;;;;;;;6.82;4.50;;;;;;;4.84;84.00;101548.84;5063829;28;20047;-70
2022/04/15 05:11:53;;;;;;;13.30;5.80;;;;;;;4.82;83.61;101553.06;5063853;28;20020;-69
2022/04/15 05:14:18;;;;;;;12.85;6.78;;;;;;;4.85;83.68;101550.59;5063659;28;20029;-68
2022/04/15 05:16:43;;;;;;;10.70;5.10;;;;;;;4.90;83.34;101564.50;5063549;28;20076;-69
2022/04/15 05:19:09;;;;;;;9.48;5.82;;;;;;;4.89;82.95;101560.16;5045519;28;20021;-69
2022/04/15 05:21:35;;;;;;;7.30;4.90;;;;;;;4.87;83.16;101579.84;5063575;28;20025;-70
2022/04/15 05:24:01;;;;;;;8.73;5.70;;;;;;;4.79;83.41;101576.97;5063256;28;20025;-68
2022/04/15 05:26:28;;;;;;;6.95;4.80;;;;;;;4.83;83.66;101584.00;5045802;28;20381;-71
2022/04/15 05:28:53;;;;;;;9.57;5.20;;;;;;;4.82;83.63;101584.81;5062185;28;20025;-69
2022/04/15 05:31:19;;;;;;;7.57;3.95;;;;;;;4.80;83.78;101583.00;5063274;28;20071;-70
2022/04/15 05:33:44;;;;;;;6.05;4.20;;;;;;;4.89;82.67;101603.06;5063183;28;20028;-68
2022/04/15 05:36:09;;;;;;;8.77;4.97;;;;;;;4.80;83.05;101608.75;5063245;28;20469;-68
2022/04/15 05:38:35;;;;;;;6.25;3.75;;;;;;;4.89;82.29;101619.34;5045165;28;20068;-69
2022/04/15 05:41:00;;;;;;;8.80;5.38;;;;;;;4.83;82.17;101607.16;5063032;28;20071;-69
2022/04/15 05:43:26;;;;;;;6.55;3.92;;;;;;;4.93;82.33;101612.63;5044941;28;20025;-69
2022/04/15 05:45:51;;;;;;;5.40;3.35;;;;;;;4.93;82.39;101626.38;5062128;28;20091;-68
2022/04/15 05:48:16;;;;;;;8.38;3.80;;;;;;;4.95;82.07;101629.00;5063048;28;20025;-70
2022/04/15 05:50:42;;;;;;;5.10;3.72;;;;;;;4.86;81.40;101615.81;5063137;28;20025;-68
2022/04/15 05:53:07;;;;;;;7.28;3.90;;;;;;;4.92;81.26;101632.31;5062728;28;20035;-68
2022/04/15 05:55:33;;;;;;;4.80;2.85;;;;;;;5.10;80.07;101649.22;5062876;28;20025;-71
2022/04/15 05:57:59;;;;;;;7.22;4.03;;;;;;;5.11;78.68;101660.41;5062928;28;20029;-68
2022/04/15 06:00:24;;;;;;;5.10;2.45;;;;;;;5.08;78.38;101656.00;5063077;28;20024;-68
2022/04/15 06:02:49;;;;;;;4.40;2.42;;;;;;;5.00;78.65;101667.75;5062805;28;20484;-70
2022/04/15 06:05:15;;;;;;;5.22;2.88;;;;;;;4.95;78.96;101672.75;5062927;28;20413;-69
2022/04/15 06:07:40;;;;;;;10.52;4.22;;;;;;;5.01;77.11;101678.13;5062962;28;20021;-69
2022/04/15 06:10:06;;;;;;;8.48;3.20;;;;;;;4.98;76.96;101669.41;5062576;28;20042;-68
2022/04/15 06:12:54;;;;;;;7.20;3.85;;;;;;;4.89;77.74;101675.97;5044810;28;20013;-70
2022/04/15 06:15:24;;;;;;;6.47;4.28;;;;;;;4.90;78.10;101687.16;5062669;28;20025;-67
2022/04/15 06:17:50;;;;;;;7.38;3.95;;;;;;;4.93;77.93;101693.28;5044879;28;20013;-70
2022/04/15 06:20:17;;;;;;;4.60;2.95;;;;;;;4.99;77.47;101694.31;5062692;28;20064;-68
2022/04/15 06:22:45;;;;;;;7.22;3.65;;;;;;;4.92;78.22;101706.97;5062993;28;20021;-65
2022/04/15 06:25:11;;;;;;;6.55;3.72;;;;;;;5.01;78.00;101713.25;5062581;28;20369;-73
2022/04/15 06:27:37;;;;;;;8.57;3.15;;;;;;;5.02;76.82;101704.72;5044653;28;20032;-69
2022/04/15 06:30:03;;;;;;;8.27;3.75;;;;;;;5.00;77.14;101712.38;5062747;28;20032;-70
2022/04/15 06:32:29;;;;;;;6.90;3.70;;;;;;;4.96;77.25;101718.25;5062405;28;20106;-72
2022/04/15 06:34:54;;;;;;;6.47;2.53;;;;;;;4.85;77.04;101702.44;5062738;28;20037;-69
2022/04/15 06:37:20;;;;;;;12.13;4.57;;;;;;;4.88;76.94;101714.50;5044773;28;20082;-67
2022/04/15 06:39:50;;;;;;;7.88;3.50;;;;;;;4.75;77.34;101702.88;5062366;28;20025;-63
2022/04/15 06:42:22;;;;;;;4.63;2.53;;;;;;;4.77;77.40;101724.41;5062738;28;20237;-64
2022/04/15 06:44:48;;;;;;;7.30;3.63;;;;;;;4.79;77.38;101727.94;5061107;28;20017;-67
2022/04/15 06:47:14;;;;;;;4.40;2.85;;;;;;;4.75;77.40;101721.78;5062357;28;20021;-65
2022/04/15 06:49:39;;;;;;;5.60;3.50;;;;;;;4.83;76.92;101742.66;5062647;28;20024;-63
2022/04/15 06:52:05;;;;;;;5.18;3.00;;;;;;;4.83;76.88;101747.78;5062543;28;20044;-64
2022/04/15 06:54:30;;;;;;;7.93;2.72;;;;;;;4.84;76.55;101760.72;5062176;28;20033;-65
2022/04/15 06:56:55;;;;;;;5.43;3.40;;;;;;;4.80;76.03;101740.84;5064582;28;20051;-62
2022/04/15 06:59:21;;;;;;;7.30;3.63;;;;;;;4.78;76.50;101762.19;5066496;28;20032;-64
2022/04/15 07:01:46;;;;;;;8.82;3.67;;;;;;;4.74;76.83;101753.50;5066289;28;20069;-67
2022/04/15 07:04:12;;;;;;;10.38;3.45;;;;;;;4.85;75.92;101766.75;5048144;28;20039;-66
2022/04/15 07:06:37;;;;;;;2.95;1.98;;;;;;;4.89;75.40;101778.91;5066328;28;20053;-67
2022/04/15 07:09:03;;;;;;;6.60;3.20;;;;;;;4.88;75.18;101772.00;5047748;28;20017;-65
2022/04/15 07:11:28;;;;;;;4.97;3.35;;;;;;;4.79;75.54;101772.53;5066278;28;20036;-65
2022/04/15 07:13:54;;;;;;;7.15;3.70;;;;;;;4.82;74.75;101782.09;5065787;28;20028;-66
2022/04/15 07:16:19;;;;;;;5.85;3.47;;;;;;;4.81;74.62;101790.59;5065891;28;20287;-64
2022/04/15 07:18:44;;;;;;;8.82;4.43;;;;;;;4.71;75.40;101779.97;5065883;28;20089;-65
2022/04/15 07:21:11;;;;;;;5.80;3.60;;;;;;;4.78;75.60;101791.38;5065251;28;20073;-65
2022/04/15 07:23:36;;;;;;;5.07;3.05;;;;;;;4.80;75.12;101800.03;5064403;28;20031;-67
2022/04/15 07:26:02;;;;;;;3.58;2.72;;;;;;;4.84;74.29;101808.72;5065841;28;20017;-68
2022/04/15 07:28:28;;;;;;;6.43;2.67;;;;;;;4.64;74.75;101779.69;5064991;28;20116;-64
2022/04/15 07:30:53;;;;;;;4.75;2.67;;;;;;;4.68;74.57;101805.56;5064758;28;20055;-66
2022/04/15 07:33:19;;;;;;;4.53;2.58;;;;;;;4.64;74.68;101815.69;5065687;28;20045;-66
2022/04/15 07:35:45;;;;;;;7.15;4.38;;;;;;;4.59;74.75;101825.81;5065931;28;20032;-65
2022/04/15 07:38:10;;;;;;;5.20;2.33;;;;;;;4.71;73.93;101830.56;5065752;28;20033;-66
2022/04/15 07:40:36;;;;;;;5.13;2.83;;;;;;;4.56;74.42;101811.13;5065578;28;20021;-65
2022/04/15 07:43:01;;;;;;;4.68;2.70;;;;;;;4.61;74.49;101819.03;5047641;28;20070;-66
2022/04/15 07:45:27;;;;;;;8.23;3.25;;;;;;;4.54;74.70;101820.47;5065900;28;20104;-66
2022/04/15 07:47:52;;;;;;;9.93;3.10;;;;;;;4.51;75.17;101819.47;5065679;28;20067;-66
2022/04/15 07:50:22;;;;;;;8.75;4.30;;;;;;;4.58;75.27;101839.50;5047418;28;20028;-64
2022/04/15 07:52:47;;;;;;;6.55;2.88;;;;;;;4.76;74.49;101841.03;5047650;28;20481;-64
2022/04/15 07:55:13;;;;;;;6.40;3.22;;;;;;;4.84;73.13;101842.19;5064964;28;20025;-66
2022/04/15 07:57:38;;;;;;;5.50;3.30;;;;;;;4.66;73.61;101845.81;5064324;28;20043;-65
2022/04/15 08:00:04;;;;;;;5.68;3.17;;;;;;;4.70;73.54;101849.38;5064197;28;20031;-63
2022/04/15 08:02:29;;;;;;;4.93;3.08;;;;;;;4.66;74.20;101845.81;5065320;28;20029;-65
2022/04/15 08:04:55;;;;;;;6.35;2.72;;;;;;;4.69;74.32;101847.63;5063538;28;20039;-66
2022/04/15 08:07:22;;;;;;;7.03;3.83;;;;;;;4.72;74.05;101860.59;5064532;28;20485;-66
2022/04/15 08:09:47;;;;;;;4.35;3.10;;;;;;;4.75;74.04;101872.72;5064637;28;20024;-66
2022/04/15 08:12:13;;;;;;;4.93;3.38;;;;;;;4.82;74.58;101874.72;5065138;28;20136;-66
2022/04/15 08:14:38;;;;;;;5.97;3.20;;;;;;;5.02;74.63;101875.47;5064961;28;20530;-67
2022/04/15 08:17:04;;;;;;;5.95;3.67;;;;;;;5.20;73.88;101872.75;5064983;28;20112;-64
2022/04/15 08:19:31;;;;;;;5.00;3.35;;;;;;;5.38;74.46;101875.94;5046966;28;20032;-64
2022/04/15 08:21:57;;;;;;;4.95;3.00;;;;;;;5.67;74.40;101873.56;5064869;28;20032;-65
2022/04/15 08:24:22;;;;;;;7.63;3.28;;;;;;;5.86;73.91;101869.03;5064448;28;20063;-65
2022/04/15 08:26:49;;;;;;;6.38;2.50;;;;;;;5.99;72.90;101880.66;5065101;28;20024;-66
2022/04/15 08:29:15;;;;;;;4.75;2.97;;;;;;;6.01;71.51;101884.13;5064894;28;20028;-66
2022/04/15 08:31:41;;;;;;;3.90;2.60;;;;;;;5.95;70.96;101885.69;5064716;28;20041;-66
2022/04/15 08:34:06;;;;;;;6.60;2.75;;;;;;;5.90;70.92;101883.78;5064602;28;20120;-66
2022/04/15 08:36:32;;;;;;;2.58;1.92;;;;;;;5.92;70.47;101884.72;5046613;28;20035;-65
2022/04/15 08:38:58;;;;;;;6.13;2.53;;;;;;;6.02;69.10;101902.25;5064365;28;20261;-64
2022/04/15 08:41:26;;;;;;;4.65;2.80;;;;;;;5.86;68.61;101895.69;5064397;28;20549;-65
2022/04/15 08:43:53;;;;;;;2.45;1.75;;;;;;;5.87;68.75;101891.41;5064302;28;20107;-65
2022/04/15 08:46:21;;;;;;;5.80;2.80;;;;;;;5.83;68.42;101905.91;5064412;28;20017;-65
2022/04/15 08:48:48;;;;;;;4.38;2.70;;;;;;;5.94;67.94;101901.97;5064357;28;20110;-63
2022/04/15 08:51:15;;;;;;;3.13;2.35;;;;;;;5.87;67.41;101910.31;5064410;28;20044;-66
2022/04/15 08:53:41;;;;;;;6.93;2.53;;;;;;;5.87;67.24;101917.19;5064071;28;20051;-65
2022/04/15 08:56:07;;;;;;;4.60;2.75;;;;;;;5.86;67.16;101916.31;5064040;28;20409;-64
2022/04/15 08:58:32;;;;;;;5.60;2.70;;;;;;;5.80;67.43;101923.81;5046182;28;20036;-64
2022/04/15 09:00:58;;;;;;;4.57;2.60;;;;;;;5.85;66.90;101942.91;5064074;28;20021;-64
2022/04/15 09:03:23;;;;;;;4.82;2.45;;;;;;;5.83;66.82;101932.53;5064099;28;20048;-63
2022/04/15 09:05:51;;;;;;;4.97;2.50;;;;;;;5.95;67.08;101941.53;5064075;28;20128;-65
2022/04/15 09:08:16;;;;;;;4.60;2.30;;;;;;;6.05;66.71;101953.09;5064248;28;20082;-65
2022/04/15 09:10:42;;;;;;;11.13;3.38;;;;;;;6.07;65.98;101947.16;5063723;28;20464;-66
2022/04/15 09:13:19;;;;;;;3.67;2.03;;;;;;;6.04;66.01;101938.38;5063842;28;20021;-64
2022/04/15 09:15:44;;;;;;;3.30;1.73;;;;;;;6.16;65.08;101950.88;5063646;28;20029;-67
2022/04/15 09:18:09;;;;;;;5.90;3.20;;;;;;;6.01;65.32;101962.38;5064007;28;20032;-69
2022/04/15 09:20:35;;;;;;;4.38;2.25;;;;;;;5.99;65.34;101958.84;5063881;28;20715;-64
2022/04/15 09:23:10;;;;;;;3.38;1.83;;;;;;;6.06;65.16;101954.84;5063911;28;20518;-66
2022/04/15 09:25:37;;;;;;;2.28;1.63;;;;;;;6.06;65.48;101957.41;5063540;28;20454;-65
2022/04/15 09:28:03;;;;;;;4.07;2.15;;;;;;;6.28;65.50;101950.41;5063632;28;20500;-64
2022/04/15 09:30:41;;;;;;;4.50;2.17;;;;;;;6.45;65.13;101954.44;5063413;28;20020;-65
2022/04/15 09:33:10;;;;;;;4.13;2.00;;;;;;;6.59;63.61;101964.38;5063917;28;20023;-65
2022/04/15 09:35:35;;;;;;;1.98;1.67;;;;;;;6.61;62.90;101979.91;5062247;28;20191;-62
2022/04/15 09:38:04;;;;;;;4.97;2.10;;;;;;;6.59;63.41;101981.53;5063469;28;20025;-64
2022/04/15 09:40:35;;;;;;;2.80;2.25;;;;;;;6.58;63.50;101980.69;5045329;28;20322;-65
2022/04/15 09:43:03;;;;;;;2.85;1.83;;;;;;;6.56;63.19;101998.69;5063444;28;20029;-66
2022/04/15 09:45:34;;;;;;;4.43;2.47;;;;;;;6.59;62.98;101991.88;5063335;28;20396;-64
2022/04/15 09:48:04;;;;;;;3.72;1.98;;;;;;;6.48;63.46;101988.94;5045331;28;20020;-64
2022/04/15 09:50:36;;;;;;;4.35;2.65;;;;;;;6.55;63.11;101996.06;5045231;28;20033;-65
2022/04/15 09:53:08;;;;;;;3.13;1.77;;;;;;;6.60;61.95;101988.47;5063418;28;20032;-64
2022/04/15 09:55:35;;;;;;;3.58;2.05;;;;;;;6.60;62.26;101998.81;5062684;28;20520;-65
2022/04/15 09:58:07;;;;;;;4.32;1.52;;;;;;;6.78;62.01;101990.78;5062135;28;20079;-65
2022/04/15 10:00:34;;;;;;;2.67;1.75;;;;;;;6.94;61.10;102016.28;5044075;28;20047;-65
2022/04/15 10:03:03;;;;;;;3.78;1.58;;;;;;;6.91;60.38;101994.66;5062531;28;20017;-64
2022/04/15 10:05:29;;;;;;;1.25;1.02;;;;;;;7.16;60.46;101998.88;5045150;28;20059;-65
2022/04/15 10:07:55;;;;;;;3.85;1.85;;;;;;;7.22;60.45;102007.66;5063050;28;20013;-65
2022/04/15 10:10:21;;;;;;;1.98;1.55;;;;;;;7.32;60.28;102004.53;5062778;28;20088;-66
2022/04/15 10:12:48;;;;;;;3.55;2.40;;;;;;;7.52;58.55;101996.53;5063190;28;20025;-65
2022/04/15 10:15:14;;;;;;;3.13;1.73;;;;;;;7.57;59.24;102008.72;5062778;28;20045;-65
2022/04/15 10:17:39;;;;;;;4.03;1.60;;;;;;;7.68;59.12;102009.03;5063003;28;20020;-65
2022/04/15 10:20:07;;;;;;;2.60;1.98;;;;;;;8.07;58.09;102004.09;5062968;28;20021;-64
2022/04/15 10:22:37;;;;;;;5.72;2.65;;;;;;;8.58;56.93;102019.28;5062777;28;20481;-67
2022/04/15 10:25:03;;;;;;;3.00;1.60;;;;;;;9.40;54.13;102021.25;5062691;28;20024;-66
2022/04/15 10:27:30;;;;;;;3.90;1.90;;;;;;;9.84;51.61;102026.50;5044940;28;20044;-66
2022/04/15 10:30:14;;;;;;;2.72;1.70;;;;;;;10.27;50.55;102016.09;5062830;28;20040;-65
2022/04/15 10:32:51;;;;;;;2.72;1.38;;;;;;;11.06;48.91;102005.31;5066382;28;20045;-63
2022/04/15 10:35:35;;;;;;;1.83;1.27;;;;;;;11.16;48.04;102009.81;5066865;28;20021;-66
2022/04/15 10:38:10;;;;;;;2.78;1.50;;;;;;;11.13;48.03;102004.56;5067030;28;20028;-63
2022/04/15 10:40:36;;;;;;;2.88;1.40;;;;;;;11.36;47.83;102011.81;5066804;28;20036;-65
2022/04/15 10:43:29;;;;;;;2.25;1.60;;;;;;;11.66;46.99;102015.72;5067035;28;20051;-67
2022/04/15 10:46:14;;;;;;;3.75;1.80;;;;;;;11.75;47.55;102020.13;5066748;28;20024;-65
2022/04/15 10:48:41;;;;;;;1.70;1.30;;;;;;;11.77;46.00;102014.09;5066770;28;20036;-66
2022/04/15 10:51:21;;;;;;;2.08;1.50;;;;;;;11.40;47.42;102009.31;5067010;28;20035;-66
2022/04/15 10:53:47;;;;;;;2.67;1.50;;;;;;;11.84;47.21;102007.25;5066806;28;20044;-67
2022/04/15 10:56:13;;;;;;;2.67;1.20;;;;;;;12.48;46.68;102031.41;5048939;28;20024;-66
2022/04/15 11:02:02;;;;;;;3.85;1.23;;;;;;;12.72;43.78;102000.34;5065870;28;20032;-65
2022/04/15 11:04:35;;;;;;;1.67;0.93;;;;;;;12.77;41.35;101996.91;5048154;28;20283;-68
2022/04/15 11:07:14;;;;;;;2.33;1.20;;;;;;;12.51;40.95;101989.75;5066921;28;20257;-66
2022/04/15 11:09:39;;;;;;;2.13;1.30;;;;;;;12.41;40.57;102006.16;5067443;28;20272;-70
2022/04/15 11:12:06;;;;;;;5.15;1.40;;;;;;;12.52;41.59;102016.69;5065269;28;20088;-72
2022/04/15 11:14:35;;;;;;;3.75;1.40;;;;;;;12.89;40.72;102008.31;5066383;28;20104;-72
2022/04/15 11:17:00;;;;;;;2.90;1.60;;;;;;;13.14;39.32;102000.66;5031744;28;20017;-72
2022/04/15 11:19:27;;;;;;;3.35;1.60;;;;;;;13.32;40.16;102005.09;5048336;28;20049;-71
2022/04/15 11:21:53;;;;;;;2.83;1.20;;;;;;;13.85;40.26;102004.53;5066348;28;20025;-71
2022/04/15 11:24:26;;;;;;;2.58;1.17;;;;;;;13.91;39.73;102003.66;5065854;28;20464;-70
2022/04/15 11:26:58;;;;;;;1.83;1.38;;;;;;;12.96;40.37;102020.50;5047754;28;20539;-71
2022/04/15 11:29:27;;;;;;;3.20;1.50;;;;;;;11.53;42.60;102015.53;5065121;28;20089;-72
2022/04/15 11:32:06;;;;;;;2.65;1.33;;;;;;;10.84;44.30;102013.66;5065499;28;20057;-70